06R weather

Grawunder Field
Bellville, Texas, United States

Public forecast

Using degrees Fahrenheit for public forecast. Weather courtesy of forecast.io.

METAR (pilot weather report)

Closest report is Brenham Municipal Airport, 17.9 nm (33.2 km) NNW. Retrieved 2019/07/21 18:35 UTC (0 seconds ago):

K11R 211835Z AUTO 20006KT 10SM CLR 35/19 A2999 RMK AO2 T03490185

TAF (pilot weather forecast)

Closest forecast is Sugar Land Regional Airport, 36.2 nm (67.1 km) ESE. Retrieved 2019/07/21 18:28 UTC (0 seconds ago):

TAF KSGR 211726Z 2118/2218 19009KT P6SM SCT030 SCT250 FM212000 16007KT P6SM VCSH SCT035 SCT250 FM212200 17007KT P6SM VCTS SCT045CB BKN250 FM220000 16006KT P6SM FEW045 SCT250 FM221000 VRB03KT P6SM SCT015 BKN150 FM221600 25006KT P6SM VCSH FEW015 SCT035